createdAt,value
2022-08-10T00:03:04.467Z,45.20
2022-08-10T00:08:08.690Z,45.40
2022-08-10T00:13:11.578Z,45.50
2022-08-10T00:18:34.212Z,45.60
2022-08-10T00:23:39.566Z,45.80
2022-08-10T00:28:42.505Z,45.80
2022-08-10T00:33:45.429Z,45.90
2022-08-10T00:38:49.661Z,46.00
2022-08-10T00:43:52.541Z,46.10
2022-08-10T00:49:00.077Z,46.10
2022-08-10T00:54:06.594Z,46.10
2022-08-10T00:59:10.567Z,46.10
2022-08-10T01:04:45.158Z,46.00
2022-08-10T01:09:44.972Z,46.10
2022-08-10T01:15:05.997Z,46.40
2022-08-10T01:20:30.046Z,46.40
2022-08-10T01:26:11.156Z,46.60
2022-08-10T01:31:21.039Z,46.90
2022-08-10T01:36:31.960Z,47.10
2022-08-10T01:41:45.615Z,47.10
2022-08-10T01:46:57.187Z,47.50
2022-08-10T01:52:01.610Z,47.90
2022-08-10T01:57:05.991Z,48.00
2022-08-10T02:02:12.897Z,48.60
2022-08-10T02:07:19.717Z,48.70
2022-08-10T02:12:25.469Z,49.00
2022-08-10T02:17:58.523Z,49.20
2022-08-10T02:23:00.838Z,49.40
2022-08-10T02:28:05.970Z,49.60
2022-08-10T02:33:11.579Z,50.10
2022-08-10T02:38:21.207Z,50.20
2022-08-10T02:45:26.509Z,50.70
2022-08-10T02:49:01.851Z,51.10
2022-08-10T02:54:09.756Z,51.40
2022-08-10T02:59:17.530Z,51.70
2022-08-10T03:04:55.138Z,52.20
2022-08-10T03:09:48.985Z,52.80
2022-08-10T03:14:52.237Z,53.30
2022-08-10T03:20:33.864Z,53.40
2022-08-10T03:25:24.846Z,53.90
2022-08-10T03:30:32.571Z,54.20
2022-08-10T03:35:37.540Z,54.60
2022-08-10T03:40:46.432Z,54.80
2022-08-10T03:45:54.964Z,55.10
2022-08-10T03:51:02.982Z,55.70
2022-08-10T03:56:30.252Z,56.60
2022-08-10T04:02:43.757Z,57.30
2022-08-10T04:06:56.598Z,57.90
2022-08-10T04:11:59.635Z,58.30
2022-08-10T04:17:02.522Z,58.70
2022-08-10T04:22:11.811Z,59.40
2022-08-10T04:27:15.858Z,60.20
2022-08-10T04:32:22.021Z,60.90
2022-08-10T04:37:27.536Z,61.60
2022-08-10T04:42:33.197Z,62.10
2022-08-10T04:48:00.939Z,62.70
2022-08-10T04:53:00.220Z,63.60
2022-08-10T04:58:03.167Z,64.80
2022-08-10T05:03:07.220Z,65.00
2022-08-10T05:08:11.450Z,65.80
2022-08-10T05:13:14.482Z,66.30
2022-08-10T05:18:17.439Z,67.30
2022-08-10T05:23:21.696Z,67.90
2022-08-10T05:28:27.811Z,68.70
2022-08-10T05:33:33.967Z,71.30
2022-08-10T05:38:39.643Z,73.10
2022-08-10T05:43:43.189Z,76.10
2022-08-10T05:48:58.639Z,77.60
2022-08-10T05:54:06.894Z,78.20
2022-08-10T05:59:10.345Z,79.00
2022-08-10T06:04:21.009Z,78.80
2022-08-10T06:09:27.089Z,81.40
2022-08-10T06:15:05.989Z,82.30
2022-08-10T06:20:13.378Z,82.10
2022-08-10T06:26:09.097Z,81.40
2022-08-10T06:30:41.624Z,81.10
2022-08-10T06:35:45.249Z,82.20
2022-08-10T06:40:50.285Z,82.60
2022-08-10T06:46:07.851Z,82.60
2022-08-10T06:51:18.705Z,83.50
2022-08-10T06:56:43.729Z,85.00
2022-08-10T07:02:14.107Z,84.50
2022-08-10T07:07:24.268Z,86.00
2022-08-10T07:12:32.040Z,86.00
2022-08-10T07:17:39.426Z,87.10
2022-08-10T07:23:01.598Z,86.20
2022-08-10T07:28:09.366Z,86.30
2022-08-10T07:33:21.484Z,84.90
2022-08-10T07:38:32.704Z,84.70
2022-08-10T07:43:41.511Z,84.40
2022-08-10T07:48:53.856Z,84.00
2022-08-10T07:53:57.485Z,83.40
2022-08-10T07:59:07.308Z,83.00
2022-08-10T08:04:13.566Z,83.40
2022-08-10T08:09:39.558Z,83.20
2022-08-10T08:16:14.381Z,82.70
2022-08-10T08:20:31.090Z,80.40
2022-08-10T08:25:34.696Z,79.10
2022-08-10T08:30:45.719Z,77.60
2022-08-10T08:35:57.040Z,76.50
2022-08-10T08:41:09.822Z,75.60
2022-08-10T08:46:57.150Z,73.90
2022-08-10T08:52:18.567Z,72.30
2022-08-10T08:57:50.543Z,70.90
2022-08-10T09:03:27.548Z,69.20
2022-08-10T09:09:13.664Z,68.20
2022-08-10T09:14:26.588Z,67.00
2022-08-10T09:19:39.038Z,66.20
2022-08-10T09:24:46.028Z,65.40
2022-08-10T09:29:58.961Z,64.10
2022-08-10T09:36:19.403Z,62.70
2022-08-10T09:41:00.641Z,62.30
2022-08-10T09:46:27.511Z,61.80
2022-08-10T09:51:45.923Z,61.00
2022-08-10T09:57:43.368Z,60.00
2022-08-10T10:02:43.353Z,59.50
2022-08-10T10:07:56.661Z,58.90
2022-08-10T10:13:09.127Z,58.60
2022-08-10T10:18:34.162Z,57.70
2022-08-10T10:24:21.207Z,57.20
2022-08-10T10:29:57.541Z,56.90
2022-08-10T10:35:00.948Z,56.30
2022-08-10T10:40:23.240Z,55.90
2022-08-10T10:45:38.990Z,56.00
2022-08-10T10:50:59.059Z,55.90
2022-08-10T10:56:14.159Z,55.50
2022-08-10T11:01:34.992Z,54.60
2022-08-10T11:06:51.464Z,54.40
2022-08-10T11:12:03.014Z,54.50
2022-08-10T11:17:22.502Z,54.00
2022-08-10T11:22:45.904Z,53.90
2022-08-10T11:28:00.548Z,53.80
2022-08-10T11:33:13.332Z,53.70
2022-08-10T11:38:39.836Z,53.60
2022-08-10T11:44:06.119Z,53.30
2022-08-10T11:49:18.891Z,52.90
2022-08-10T11:54:31.793Z,52.60
2022-08-10T12:00:08.613Z,52.10
2022-08-10T12:05:51.936Z,51.80
2022-08-10T12:11:08.291Z,51.70
2022-08-10T12:16:28.808Z,51.30
2022-08-10T12:21:44.024Z,51.20
2022-08-10T12:27:01.082Z,51.30
2022-08-10T12:32:13.667Z,50.80
2022-08-10T12:37:33.701Z,50.40
2022-08-10T12:43:01.625Z,50.30
2022-08-10T12:48:31.008Z,50.20
2022-08-10T12:53:59.264Z,49.60
2022-08-10T12:59:13.317Z,49.50
2022-08-10T13:04:27.182Z,49.50
2022-08-10T13:09:56.421Z,49.40
2022-08-10T13:15:45.126Z,49.10
2022-08-10T13:20:48.895Z,49.10
2022-08-10T13:25:58.121Z,49.10
2022-08-10T13:31:11.569Z,48.60
2022-08-10T13:36:28.347Z,48.40
2022-08-10T13:41:36.183Z,48.40
2022-08-10T13:46:44.587Z,48.30
2022-08-10T13:51:57.034Z,48.00
2022-08-10T13:57:01.962Z,47.60
2022-08-10T14:02:07.963Z,47.60
2022-08-10T14:07:15.101Z,47.40
2022-08-10T14:12:20.319Z,47.30
2022-08-10T14:17:42.614Z,47.10
2022-08-10T14:22:51.689Z,47.10
2022-08-10T14:28:02.172Z,47.00
2022-08-10T14:33:08.685Z,46.80
2022-08-10T14:38:20.821Z,46.50
2022-08-10T14:43:29.095Z,46.30
2022-08-10T14:48:37.006Z,45.90
2022-08-10T14:54:03.511Z,45.70
2022-08-10T14:59:09.312Z,45.70
2022-08-10T15:04:15.051Z,45.40
2022-08-10T15:09:24.449Z,45.70
2022-08-10T15:14:43.725Z,45.50
2022-08-10T15:20:02.142Z,45.40
2022-08-10T15:25:17.893Z,45.30
2022-08-10T15:30:30.273Z,45.00
2022-08-10T15:35:54.578Z,45.10
2022-08-10T15:41:12.897Z,44.90
2022-08-10T15:46:30.019Z,44.80
2022-08-10T15:51:54.246Z,44.40
2022-08-10T15:57:04.128Z,44.20
2022-08-10T16:02:28.554Z,44.10
2022-08-10T16:07:45.770Z,43.80
2022-08-10T16:12:59.800Z,43.80
2022-08-10T16:18:09.303Z,43.70
2022-08-10T16:23:15.650Z,43.80
2022-08-10T16:28:23.058Z,43.80
2022-08-10T16:33:53.344Z,43.80
2022-08-10T16:39:01.632Z,43.60
2022-08-10T16:44:07.840Z,43.90
2022-08-10T16:49:11.847Z,43.90
2022-08-10T16:54:24.841Z,43.50
2022-08-10T16:59:35.324Z,43.30
2022-08-10T17:04:43.843Z,43.10
2022-08-10T17:09:50.437Z,43.30
2022-08-10T17:15:10.369Z,43.20
2022-08-10T17:20:30.548Z,43.20
2022-08-10T17:25:48.826Z,43.50
2022-08-10T17:31:01.811Z,43.50
2022-08-10T17:36:06.476Z,43.20
2022-08-10T17:41:12.619Z,43.30
2022-08-10T17:46:17.437Z,42.90
2022-08-10T17:51:20.802Z,42.90
2022-08-10T17:56:25.279Z,43.10
2022-08-10T18:01:40.445Z,42.80
2022-08-10T18:06:45.664Z,42.60
2022-08-10T18:11:51.439Z,42.70
2022-08-10T18:16:58.483Z,42.40
2022-08-10T18:22:04.609Z,42.40
2022-08-10T18:27:09.888Z,42.00
2022-08-10T18:32:15.626Z,42.20
2022-08-10T18:37:22.169Z,42.30
2022-08-10T18:42:32.196Z,41.90
2022-08-10T18:47:56.021Z,42.10
2022-08-10T18:53:09.259Z,42.10
2022-08-10T18:58:37.802Z,42.10
2022-08-10T19:04:00.127Z,42.10
2022-08-10T19:09:46.823Z,42.20
2022-08-10T19:14:40.976Z,42.20
2022-08-10T19:19:57.262Z,42.40
2022-08-10T19:25:05.585Z,42.50
2022-08-10T19:30:13.469Z,42.50
2022-08-10T19:35:29.021Z,42.60
2022-08-10T19:40:44.694Z,42.60
2022-08-10T19:46:02.631Z,42.60
2022-08-10T19:51:14.595Z,42.60
2022-08-10T19:56:34.024Z,42.70
2022-08-10T20:01:55.287Z,42.70
2022-08-10T20:07:10.944Z,42.70
2022-08-10T20:12:19.905Z,42.70
2022-08-10T20:17:30.241Z,42.80
2022-08-10T20:23:05.598Z,42.80
2022-08-10T20:28:16.162Z,42.80
2022-08-10T20:33:28.167Z,42.90
2022-08-10T20:38:39.446Z,43.10
2022-08-10T20:43:49.799Z,43.00
2022-08-10T20:48:58.756Z,43.10
2022-08-10T20:54:07.595Z,43.10
2022-08-10T20:59:33.525Z,43.20
2022-08-10T21:04:51.373Z,43.00
2022-08-10T21:10:04.409Z,43.10
2022-08-10T21:15:19.992Z,43.20
2022-08-10T21:20:47.255Z,43.20
2022-08-10T21:26:07.350Z,43.10
2022-08-10T21:31:38.234Z,43.10
2022-08-10T21:36:50.625Z,43.10
2022-08-10T21:42:27.807Z,43.00
2022-08-10T21:48:16.656Z,42.90
2022-08-10T21:53:44.594Z,42.90
2022-08-10T21:59:12.932Z,43.00
2022-08-10T22:04:34.808Z,43.40
2022-08-10T22:10:02.172Z,43.00
2022-08-10T22:16:03.240Z,42.90
2022-08-10T22:21:20.546Z,42.90
2022-08-10T22:27:00.911Z,42.90
2022-08-10T22:32:32.515Z,42.70
2022-08-10T22:38:07.690Z,42.70
2022-08-10T22:43:40.055Z,42.90
2022-08-10T22:49:01.089Z,42.70
2022-08-10T22:54:31.657Z,42.60
2022-08-10T22:59:34.749Z,42.60
2022-08-10T23:04:45.127Z,42.70
2022-08-10T23:09:57.793Z,42.70
2022-08-10T23:15:20.779Z,42.90
2022-08-10T23:20:26.895Z,42.90
2022-08-10T23:25:32.920Z,43.00
2022-08-10T23:30:37.743Z,43.10
2022-08-10T23:36:28.132Z,43.30
2022-08-10T23:41:12.056Z,43.40
2022-08-10T23:46:16.926Z,43.50
2022-08-10T23:51:54.720Z,43.60
2022-08-10T23:57:01.386Z,43.60
